createdAt,value
2019-02-02T00:02:23.255Z,28.13
2019-02-02T00:05:12.534Z,28.63
2019-02-02T00:08:00.668Z,35.10
2019-02-02T00:10:49.323Z,31.30
2019-02-02T00:13:37.239Z,29.10
2019-02-02T00:16:25.675Z,30.53
2019-02-02T00:19:13.955Z,30.23
2019-02-02T00:22:02.175Z,29.20
2019-02-02T00:24:50.490Z,30.43
2019-02-02T00:27:41.446Z,30.70
2019-02-02T00:30:27.619Z,34.77
2019-02-02T00:33:15.819Z,32.40
2019-02-02T00:36:04.314Z,32.30
2019-02-02T00:38:52.744Z,32.33
2019-02-02T00:41:40.923Z,33.20
2019-02-02T00:44:28.716Z,42.70
2019-02-02T00:47:18.189Z,46.90
2019-02-02T00:50:06.795Z,32.47
2019-02-02T00:52:55.347Z,33.10
2019-02-02T00:55:44.163Z,30.80
2019-02-02T00:58:32.335Z,31.30
2019-02-02T01:01:21.047Z,32.90
2019-02-02T01:04:08.936Z,32.10
2019-02-02T01:06:57.214Z,31.83
2019-02-02T01:09:45.411Z,30.97
2019-02-02T01:12:33.722Z,32.60
2019-02-02T01:15:22.119Z,32.53
2019-02-02T01:18:10.011Z,31.20
2019-02-02T01:20:58.551Z,33.87
2019-02-02T01:23:47.373Z,36.53
2019-02-02T01:26:35.788Z,31.00
2019-02-02T01:29:23.486Z,42.47
2019-02-02T01:32:14.012Z,33.70
2019-02-02T01:35:01.928Z,30.00
2019-02-02T01:37:50.033Z,33.60
2019-02-02T01:40:37.822Z,35.77
2019-02-02T01:43:26.442Z,27.80
2019-02-02T01:46:14.151Z,36.10
2019-02-02T01:49:02.315Z,37.27
2019-02-02T01:51:50.486Z,33.40
2019-02-02T01:54:38.672Z,39.10
2019-02-02T01:57:26.620Z,32.10
2019-02-02T02:00:23.438Z,34.00
2019-02-02T02:03:11.446Z,35.50
2019-02-02T02:05:59.715Z,33.00
2019-02-02T02:08:47.379Z,31.27
2019-02-02T02:11:36.054Z,30.63
2019-02-02T02:14:23.543Z,30.97
2019-02-02T02:17:12.111Z,31.03
2019-02-02T02:20:00.098Z,31.67
2019-02-02T02:22:48.823Z,35.60
2019-02-02T02:25:36.626Z,33.70
2019-02-02T02:28:28.337Z,30.77
2019-02-02T02:31:15.034Z,31.57
2019-02-02T02:34:03.466Z,33.67
2019-02-02T02:36:51.988Z,30.37
2019-02-02T02:39:40.471Z,34.40
2019-02-02T02:42:29.329Z,38.23
2019-02-02T02:45:17.676Z,33.90
2019-02-02T02:48:06.432Z,33.63
2019-02-02T02:50:54.962Z,34.13
2019-02-02T02:53:42.726Z,33.13
2019-02-02T02:56:30.848Z,34.27
2019-02-02T02:59:18.935Z,30.70
2019-02-02T03:02:07.254Z,31.23
2019-02-02T03:04:55.203Z,30.67
2019-02-02T03:07:43.555Z,32.03
2019-02-02T03:10:31.202Z,30.97
2019-02-02T03:13:19.275Z,29.80
2019-02-02T03:16:07.802Z,31.70
2019-02-02T03:18:55.306Z,35.57
2019-02-02T03:21:43.856Z,32.50
2019-02-02T03:24:32.839Z,33.60
2019-02-02T03:27:21.523Z,30.90
2019-02-02T03:30:11.816Z,31.97
2019-02-02T03:33:00.260Z,34.07
2019-02-02T03:35:48.659Z,31.23
2019-02-02T03:38:36.709Z,33.00
2019-02-02T03:41:24.635Z,36.13
2019-02-02T03:44:12.407Z,34.83
2019-02-02T03:47:00.852Z,34.90
2019-02-02T03:49:49.221Z,40.33
2019-02-02T03:52:36.802Z,32.30
2019-02-02T03:55:24.787Z,34.33
2019-02-02T03:58:13.315Z,35.60
2019-02-02T04:01:01.635Z,36.80
2019-02-02T04:03:49.160Z,32.30
2019-02-02T04:06:37.212Z,34.80
2019-02-02T04:09:25.378Z,33.00
2019-02-02T04:12:14.507Z,33.20
2019-02-02T04:15:02.351Z,33.50
2019-02-02T04:17:50.762Z,34.20
2019-02-02T04:20:39.163Z,38.67
2019-02-02T04:23:27.643Z,33.87
2019-02-02T04:26:15.840Z,33.43
2019-02-02T04:29:04.574Z,36.23
2019-02-02T04:31:53.074Z,33.33
2019-02-02T04:34:41.384Z,32.50
2019-02-02T04:37:29.247Z,31.67
2019-02-02T04:40:16.916Z,34.20
2019-02-02T04:43:05.163Z,37.03
2019-02-02T04:45:52.762Z,36.10
2019-02-02T04:48:41.002Z,37.20
2019-02-02T04:51:28.468Z,36.97
2019-02-02T04:54:16.693Z,35.70
2019-02-02T04:57:04.975Z,34.30
2019-02-02T04:59:53.756Z,34.87
2019-02-02T05:02:41.980Z,33.60
2019-02-02T05:05:30.642Z,33.40
2019-02-02T05:08:18.895Z,33.33
2019-02-02T05:11:06.875Z,33.37
2019-02-02T05:13:55.419Z,34.03
2019-02-02T05:16:43.279Z,32.60
2019-02-02T05:19:31.243Z,36.50
2019-02-02T05:22:19.134Z,63.53
2019-02-02T05:25:08.107Z,35.20
2019-02-02T05:27:55.812Z,34.13
2019-02-02T05:30:44.115Z,36.40
2019-02-02T05:33:32.358Z,37.00
2019-02-02T05:36:20.446Z,37.00
2019-02-02T05:39:09.675Z,36.10
2019-02-02T05:41:57.604Z,39.57
2019-02-02T05:44:45.879Z,39.10
2019-02-02T05:47:34.523Z,43.47
2019-02-02T05:50:23.004Z,39.00
2019-02-02T05:53:10.515Z,37.73
2019-02-02T05:55:59.043Z,41.30
2019-02-02T05:58:47.449Z,41.17
2019-02-02T06:01:35.579Z,37.07
2019-02-02T06:04:23.354Z,39.47
2019-02-02T06:07:11.319Z,38.30
2019-02-02T06:09:59.519Z,45.30
2019-02-02T06:12:47.663Z,45.57
2019-02-02T06:15:36.558Z,46.00
2019-02-02T06:18:24.294Z,41.47
2019-02-02T06:21:12.451Z,47.57
2019-02-02T06:24:00.947Z,44.67
2019-02-02T06:26:49.228Z,46.53
2019-02-02T06:29:37.154Z,48.13
2019-02-02T06:32:25.564Z,45.27
2019-02-02T06:35:14.538Z,42.93
2019-02-02T06:38:03.239Z,46.33
2019-02-02T06:40:50.822Z,48.27
2019-02-02T06:43:38.834Z,45.80
2019-02-02T06:46:26.781Z,49.07
2019-02-02T06:49:15.479Z,41.00
2019-02-02T06:52:03.329Z,44.63
2019-02-02T06:54:51.335Z,44.47
2019-02-02T06:57:38.863Z,38.83
2019-02-02T07:00:27.459Z,44.33
2019-02-02T07:03:15.099Z,47.20
2019-02-02T07:06:03.451Z,46.13
2019-02-02T07:08:51.403Z,52.00
2019-02-02T07:11:39.498Z,48.20
2019-02-02T07:14:27.815Z,45.13
2019-02-02T07:17:17.783Z,48.43
2019-02-02T07:20:07.876Z,45.13
2019-02-02T07:22:56.326Z,46.17
2019-02-02T07:25:44.370Z,48.57
2019-02-02T07:28:32.799Z,45.20
2019-02-02T07:31:21.238Z,48.27
2019-02-02T07:34:09.289Z,51.10
2019-02-02T07:36:57.282Z,51.70
2019-02-02T07:39:45.789Z,42.90
2019-02-02T07:42:34.036Z,47.63
2019-02-02T07:45:27.851Z,55.43
2019-02-02T07:48:15.886Z,55.30
2019-02-02T07:51:04.505Z,45.53
2019-02-02T07:53:53.059Z,47.97
2019-02-02T07:56:41.907Z,51.00
2019-02-02T07:59:29.392Z,50.33
2019-02-02T08:02:17.579Z,50.67
2019-02-02T08:05:05.868Z,48.60
2019-02-02T08:07:53.639Z,50.90
2019-02-02T08:10:42.266Z,48.60
2019-02-02T08:13:30.459Z,51.67
2019-02-02T08:16:18.741Z,53.23
2019-02-02T08:19:07.291Z,51.13
2019-02-02T08:21:55.614Z,47.90
2019-02-02T08:24:44.304Z,46.97
2019-02-02T08:27:32.195Z,47.50
2019-02-02T08:30:25.474Z,54.00
2019-02-02T08:33:14.181Z,47.37
2019-02-02T08:36:04.148Z,48.17
2019-02-02T08:38:53.523Z,48.90
2019-02-02T08:41:42.670Z,49.27
2019-02-02T08:44:30.423Z,46.23
2019-02-02T08:47:21.726Z,50.23
2019-02-02T08:50:18.563Z,49.40
2019-02-02T08:53:07.296Z,54.10
2019-02-02T08:55:55.535Z,48.03
2019-02-02T08:58:43.575Z,47.03
2019-02-02T09:01:31.714Z,48.10
2019-02-02T09:04:20.337Z,46.90
2019-02-02T09:07:08.438Z,45.43
2019-02-02T09:09:56.994Z,49.77
2019-02-02T09:12:44.667Z,49.30
2019-02-02T09:15:32.889Z,47.63
2019-02-02T09:18:21.366Z,46.70
2019-02-02T09:21:09.812Z,48.73
2019-02-02T09:23:58.078Z,47.47
2019-02-02T09:26:46.211Z,48.23
2019-02-02T09:29:34.344Z,45.33
2019-02-02T09:32:22.383Z,45.37
2019-02-02T09:35:11.167Z,47.53
2019-02-02T09:37:58.858Z,43.87
2019-02-02T09:40:47.366Z,46.80
2019-02-02T09:43:35.387Z,48.30
2019-02-02T09:46:23.052Z,47.43
2019-02-02T09:49:12.220Z,48.97
2019-02-02T09:52:00.031Z,47.10
2019-02-02T09:54:48.239Z,46.73
2019-02-02T09:57:36.912Z,45.70
2019-02-02T10:00:27.312Z,45.80
2019-02-02T10:03:15.568Z,49.80
2019-02-02T10:06:03.484Z,47.00
2019-02-02T10:08:51.352Z,50.03
2019-02-02T10:11:39.064Z,47.80
2019-02-02T10:14:27.463Z,47.07
2019-02-02T10:17:15.275Z,49.10
2019-02-02T10:20:04.858Z,46.03
2019-02-02T10:22:53.563Z,48.63
2019-02-02T10:25:42.012Z,50.30
2019-02-02T10:28:30.182Z,46.33
2019-02-02T10:31:17.966Z,48.20
2019-02-02T10:34:05.924Z,48.50
2019-02-02T10:36:54.260Z,45.40
2019-02-02T10:39:42.783Z,47.77
2019-02-02T10:42:30.350Z,45.37
2019-02-02T10:45:19.118Z,56.20
2019-02-02T10:48:07.380Z,51.87
2019-02-02T10:50:55.180Z,47.60
2019-02-02T10:53:43.549Z,50.53
2019-02-02T10:56:31.671Z,53.93
2019-02-02T10:59:19.123Z,52.60
2019-02-02T11:02:08.241Z,51.23
2019-02-02T11:04:56.651Z,55.17
2019-02-02T11:07:44.650Z,51.77
2019-02-02T11:10:43.906Z,53.00
2019-02-02T11:13:32.424Z,48.97
2019-02-02T11:16:20.523Z,52.87
2019-02-02T11:19:08.829Z,55.30
2019-02-02T11:21:56.963Z,53.67
2019-02-02T11:24:45.166Z,55.50
2019-02-02T11:27:32.687Z,59.30
2019-02-02T11:30:21.256Z,56.67
2019-02-02T11:33:09.357Z,53.10
2019-02-02T11:35:57.180Z,56.77
2019-02-02T11:38:44.768Z,64.17
2019-02-02T11:41:32.307Z,56.63
2019-02-02T11:44:20.609Z,55.33
2019-02-02T11:47:08.844Z,63.27
2019-02-02T11:49:56.904Z,62.27
2019-02-02T11:52:45.131Z,60.70
2019-02-02T11:55:33.207Z,62.10
2019-02-02T11:58:20.815Z,69.23
2019-02-02T12:01:09.468Z,70.80
2019-02-02T12:03:57.561Z,68.10
2019-02-02T12:06:45.128Z,67.53
2019-02-02T12:09:33.127Z,63.27
2019-02-02T12:12:20.777Z,75.07
2019-02-02T12:15:10.328Z,71.00
2019-02-02T12:17:58.601Z,70.60
2019-02-02T12:20:47.036Z,69.93
2019-02-02T12:23:35.374Z,70.47
2019-02-02T12:26:23.064Z,64.57
2019-02-02T12:29:11.287Z,70.67
2019-02-02T12:31:59.454Z,68.80
2019-02-02T12:34:47.782Z,65.80
2019-02-02T12:37:35.716Z,68.17
2019-02-02T12:40:23.788Z,71.63
2019-02-02T12:43:11.812Z,62.73
2019-02-02T12:46:00.441Z,67.10
2019-02-02T12:48:48.283Z,62.47
2019-02-02T12:51:36.747Z,68.27
2019-02-02T12:54:24.703Z,70.37
2019-02-02T12:57:12.795Z,72.57
2019-02-02T13:00:00.789Z,69.37
2019-02-02T13:02:48.780Z,80.93
2019-02-02T13:05:39.015Z,80.93
2019-02-02T13:08:26.172Z,83.10
2019-02-02T13:11:14.496Z,75.93
2019-02-02T13:14:02.605Z,82.07
2019-02-02T13:16:51.160Z,73.90
2019-02-02T13:19:39.409Z,77.10
2019-02-02T13:22:27.276Z,79.83
2019-02-02T13:25:16.877Z,81.90
2019-02-02T13:28:05.548Z,83.20
2019-02-02T13:30:53.348Z,86.70
2019-02-02T13:33:41.423Z,76.70
2019-02-02T13:36:29.772Z,82.57
2019-02-02T13:39:17.772Z,79.97
2019-02-02T13:42:05.955Z,80.57
2019-02-02T13:44:53.505Z,79.07
2019-02-02T13:47:42.115Z,84.13
2019-02-02T13:50:30.435Z,83.13
2019-02-02T13:53:18.991Z,84.43
2019-02-02T13:56:07.439Z,86.23
2019-02-02T13:58:56.064Z,90.70
2019-02-02T14:01:43.747Z,78.30
2019-02-02T14:04:31.308Z,85.00
2019-02-02T14:07:20.150Z,80.57
2019-02-02T14:10:10.644Z,81.53
2019-02-02T14:12:58.863Z,84.70
2019-02-02T14:15:47.373Z,84.13
2019-02-02T14:18:35.470Z,85.60
2019-02-02T14:21:23.896Z,79.87
2019-02-02T14:24:12.528Z,81.70
2019-02-02T14:27:00.494Z,85.83
2019-02-02T14:29:49.156Z,82.20
2019-02-02T14:32:37.688Z,77.43
2019-02-02T14:35:27.388Z,84.30
2019-02-02T14:38:16.020Z,80.70
2019-02-02T14:41:04.744Z,84.03
2019-02-02T14:43:55.648Z,82.27
2019-02-02T14:46:42.840Z,79.40
2019-02-02T14:49:31.067Z,84.30
2019-02-02T14:52:18.712Z,82.00
2019-02-02T14:55:08.195Z,85.57
2019-02-02T14:57:56.569Z,82.30
2019-02-02T15:00:44.755Z,93.37
2019-02-02T15:03:33.236Z,87.23
2019-02-02T15:06:21.553Z,96.27
2019-02-02T15:09:09.996Z,82.90
2019-02-02T15:11:57.964Z,99.50
2019-02-02T15:14:46.768Z,87.67
2019-02-02T15:17:34.897Z,90.67
2019-02-02T15:20:29.061Z,92.27
2019-02-02T15:23:17.223Z,93.33
2019-02-02T15:26:05.109Z,93.17
2019-02-02T15:28:53.060Z,84.03
2019-02-02T15:31:40.617Z,98.07
2019-02-02T15:34:28.599Z,87.80
2019-02-02T15:37:16.179Z,95.87
2019-02-02T15:40:05.494Z,94.47
2019-02-02T15:42:53.895Z,94.20
2019-02-02T15:45:42.404Z,88.57
2019-02-02T15:48:30.111Z,88.90
2019-02-02T15:51:18.457Z,91.83
2019-02-02T15:54:05.996Z,96.33
2019-02-02T15:56:53.831Z,100.40
2019-02-02T15:59:42.471Z,105.47
2019-02-02T16:02:30.963Z,95.57
2019-02-02T16:05:19.164Z,104.90
2019-02-02T16:08:10.419Z,107.97
2019-02-02T16:10:58.319Z,103.77
2019-02-02T16:13:47.019Z,113.70
2019-02-02T16:16:35.867Z,111.93
2019-02-02T16:19:24.210Z,107.40
2019-02-02T16:22:12.512Z,108.37
2019-02-02T16:25:00.861Z,89.60
2019-02-02T16:27:49.438Z,118.30
2019-02-02T16:30:38.071Z,108.93
2019-02-02T16:33:26.255Z,112.60
2019-02-02T16:36:14.842Z,95.17
2019-02-02T16:39:02.964Z,107.67
2019-02-02T16:41:50.930Z,100.70
2019-02-02T16:44:39.179Z,104.77
2019-02-02T16:47:27.600Z,103.07
2019-02-02T16:50:16.398Z,108.23
2019-02-02T16:53:04.039Z,106.53
2019-02-02T16:55:52.412Z,101.00
2019-02-02T16:58:40.773Z,108.90
2019-02-02T17:01:28.822Z,106.43
2019-02-02T17:04:17.812Z,115.83
2019-02-02T17:07:06.203Z,104.97
2019-02-02T17:09:54.673Z,103.30
2019-02-02T17:12:42.507Z,108.07
2019-02-02T17:15:30.849Z,104.97
2019-02-02T17:18:19.195Z,113.17
2019-02-02T17:21:07.406Z,107.20
2019-02-02T17:23:55.947Z,106.80
2019-02-02T17:26:44.439Z,104.03
2019-02-02T17:29:32.307Z,111.73
2019-02-02T17:32:20.238Z,102.07
2019-02-02T17:35:09.677Z,103.37
2019-02-02T17:37:57.642Z,98.60
2019-02-02T17:40:45.820Z,113.47
2019-02-02T17:43:33.395Z,109.80
2019-02-02T17:46:21.899Z,105.07
2019-02-02T17:49:10.379Z,115.83
2019-02-02T17:51:58.944Z,106.17
2019-02-02T17:54:46.998Z,116.23
2019-02-02T17:57:35.027Z,115.93
2019-02-02T18:00:39.388Z,109.57
2019-02-02T18:03:27.082Z,112.10
2019-02-02T18:06:15.174Z,104.40
2019-02-02T18:09:05.332Z,109.97
2019-02-02T18:11:53.838Z,107.67
2019-02-02T18:14:42.286Z,113.37
2019-02-02T18:17:30.402Z,104.37
2019-02-02T18:20:18.944Z,117.73
2019-02-02T18:23:06.995Z,125.20
2019-02-02T18:25:55.260Z,107.90
2019-02-02T18:28:43.043Z,109.83
2019-02-02T18:31:31.367Z,112.70
2019-02-02T18:34:19.847Z,125.27
2019-02-02T18:37:08.140Z,117.13
2019-02-02T18:39:56.602Z,108.50
2019-02-02T18:42:44.539Z,111.90
2019-02-02T18:45:32.498Z,114.87
2019-02-02T18:48:20.588Z,125.47
2019-02-02T18:51:08.281Z,121.60
2019-02-02T18:53:56.688Z,120.70
2019-02-02T18:56:44.543Z,119.00
2019-02-02T18:59:32.799Z,115.00
2019-02-02T19:02:21.015Z,124.93
2019-02-02T19:05:09.844Z,126.33
2019-02-02T19:07:58.395Z,133.20
2019-02-02T19:10:46.939Z,135.10
2019-02-02T19:13:35.307Z,124.50
2019-02-02T19:16:23.675Z,136.43
2019-02-02T19:19:11.858Z,131.03
2019-02-02T19:21:59.839Z,128.53
2019-02-02T19:24:47.424Z,126.90
2019-02-02T19:27:35.930Z,127.60
2019-02-02T19:30:25.868Z,133.87
2019-02-02T19:33:13.904Z,128.17
2019-02-02T19:36:02.142Z,148.00
2019-02-02T19:38:50.199Z,140.77
2019-02-02T19:41:39.482Z,138.03
2019-02-02T19:44:31.503Z,129.90
2019-02-02T19:47:22.582Z,138.43
2019-02-02T19:50:13.399Z,139.30
2019-02-02T19:53:01.819Z,143.17
2019-02-02T19:55:49.352Z,143.13
2019-02-02T19:58:37.783Z,143.53
2019-02-02T20:01:29.303Z,136.50
2019-02-02T20:04:18.318Z,144.23
2019-02-02T20:07:12.528Z,143.80
2019-02-02T20:10:00.334Z,146.70
2019-02-02T20:12:49.095Z,143.33
2019-02-02T20:15:41.484Z,140.43
2019-02-02T20:18:29.316Z,147.90
2019-02-02T20:21:17.800Z,150.33
2019-02-02T20:24:06.595Z,137.00
2019-02-02T20:26:55.422Z,137.47
2019-02-02T20:29:51.824Z,137.77
2019-02-02T20:32:39.943Z,139.33
2019-02-02T20:35:39.842Z,134.97
2019-02-02T20:38:18.292Z,139.50
2019-02-02T20:41:06.551Z,135.77
2019-02-02T20:43:55.124Z,120.20
2019-02-02T20:46:43.188Z,129.23
2019-02-02T20:49:31.729Z,125.07
2019-02-02T20:52:22.279Z,121.47
2019-02-02T20:55:11.525Z,117.47
2019-02-02T20:57:59.975Z,120.50
2019-02-02T21:00:47.677Z,124.07
2019-02-02T21:03:35.446Z,125.60
2019-02-02T21:06:23.691Z,126.00
2019-02-02T21:09:12.398Z,112.17
2019-02-02T21:12:00.433Z,133.27
2019-02-02T21:14:48.511Z,123.93
2019-02-02T21:17:36.299Z,128.00
2019-02-02T21:20:26.111Z,127.47
2019-02-02T21:23:14.100Z,114.80
2019-02-02T21:26:02.078Z,115.40
2019-02-02T21:28:51.007Z,121.07
2019-02-02T21:31:39.447Z,112.37
2019-02-02T21:34:27.925Z,125.40
2019-02-02T21:37:15.974Z,126.50
2019-02-02T21:40:05.291Z,111.97
2019-02-02T21:42:53.658Z,117.80
2019-02-02T21:45:42.110Z,121.30
2019-02-02T21:48:30.515Z,120.20
2019-02-02T21:51:19.378Z,121.03
2019-02-02T21:54:07.769Z,115.70
2019-02-02T21:56:55.946Z,121.30
2019-02-02T21:59:44.488Z,123.20
2019-02-02T22:02:32.890Z,119.03
2019-02-02T22:05:21.590Z,112.80
2019-02-02T22:08:10.256Z,121.87
2019-02-02T22:10:58.279Z,119.40
2019-02-02T22:13:46.804Z,115.87
2019-02-02T22:16:34.867Z,119.77
2019-02-02T22:19:23.207Z,120.30
2019-02-02T22:22:11.626Z,127.80
2019-02-02T22:24:59.616Z,119.03
2019-02-02T22:27:48.259Z,116.23
2019-02-02T22:30:37.644Z,126.47
2019-02-02T22:33:25.500Z,118.03
2019-02-02T22:36:14.207Z,110.77
2019-02-02T22:39:02.759Z,112.93
2019-02-02T22:41:50.758Z,109.40
2019-02-02T22:44:38.623Z,130.07
2019-02-02T22:47:26.723Z,118.20
2019-02-02T22:50:19.095Z,120.00
2019-02-02T22:53:08.375Z,113.23
2019-02-02T22:55:56.574Z,124.23
2019-02-02T22:58:45.282Z,129.13
2019-02-02T23:01:46.867Z,111.20
2019-02-02T23:05:04.422Z,120.90
2019-02-02T23:08:44.782Z,116.17
2019-02-02T23:11:46.567Z,123.60
2019-02-02T23:14:50.947Z,124.40
2019-02-02T23:17:38.565Z,119.77
2019-02-02T23:20:26.847Z,120.00
2019-02-02T23:23:15.295Z,123.37
2019-02-02T23:26:04.306Z,125.77
2019-02-02T23:28:52.223Z,116.77
2019-02-02T23:31:41.447Z,119.83
2019-02-02T23:34:29.356Z,122.10
2019-02-02T23:37:16.925Z,113.60
2019-02-02T23:40:06.086Z,124.07
2019-02-02T23:42:54.553Z,117.87
2019-02-02T23:45:43.059Z,131.10
2019-02-02T23:48:31.331Z,126.80
2019-02-02T23:51:19.943Z,126.17
2019-02-02T23:54:08.152Z,134.60
2019-02-02T23:56:56.247Z,141.20
2019-02-02T23:59:44.578Z,142.07
